createdAt,value
2019-02-25T00:01:22.005Z,5.40
2019-02-25T00:03:51.366Z,5.20
2019-02-25T00:06:19.733Z,5.30
2019-02-25T00:08:47.519Z,5.40
2019-02-25T00:11:15.469Z,5.40
2019-02-25T00:13:43.291Z,5.40
2019-02-25T00:16:11.145Z,5.40
2019-02-25T00:18:39.023Z,5.30
2019-02-25T00:21:06.883Z,5.20
2019-02-25T00:23:34.674Z,5.10
2019-02-25T00:26:02.576Z,5.10
2019-02-25T00:28:30.356Z,5.20
2019-02-25T00:30:58.186Z,5.10
2019-02-25T00:33:25.849Z,5.10
2019-02-25T00:35:53.701Z,5.10
2019-02-25T00:38:21.516Z,5.00
2019-02-25T00:40:49.460Z,5.00
2019-02-25T00:43:17.135Z,5.00
2019-02-25T00:45:44.975Z,5.00
2019-02-25T00:48:12.630Z,4.90
2019-02-25T00:50:40.469Z,4.90
2019-02-25T00:53:08.141Z,4.90
2019-02-25T00:55:35.979Z,4.80
2019-02-25T00:58:03.866Z,4.70
2019-02-25T01:00:31.617Z,4.70
2019-02-25T01:02:59.493Z,4.70
2019-02-25T01:05:27.242Z,4.60
2019-02-25T01:07:55.018Z,4.60
2019-02-25T01:10:22.685Z,4.50
2019-02-25T01:12:50.507Z,4.40
2019-02-25T01:15:18.246Z,4.30
2019-02-25T01:17:46.006Z,4.40
2019-02-25T01:20:13.749Z,4.30
2019-02-25T01:22:42.748Z,4.30
2019-02-25T01:25:10.590Z,4.30
2019-02-25T01:27:39.742Z,4.30
2019-02-25T01:30:09.577Z,4.20
2019-02-25T01:32:38.934Z,4.20
2019-02-25T01:35:08.641Z,4.20
2019-02-25T01:37:37.977Z,4.10
2019-02-25T01:40:06.899Z,4.20
2019-02-25T01:42:36.239Z,4.10
2019-02-25T01:45:04.573Z,4.00
2019-02-25T01:47:33.900Z,3.90
2019-02-25T01:50:01.778Z,3.70
2019-02-25T01:52:31.075Z,3.50
2019-02-25T01:54:58.905Z,3.50
2019-02-25T01:57:26.790Z,3.60
2019-02-25T01:59:54.625Z,3.70
2019-02-25T02:02:22.320Z,3.70
2019-02-25T02:04:50.165Z,3.70
2019-02-25T02:07:17.959Z,3.80
2019-02-25T02:09:45.792Z,3.80
2019-02-25T02:12:13.460Z,3.80
2019-02-25T02:14:41.386Z,3.80
2019-02-25T02:17:09.065Z,3.70
2019-02-25T02:19:36.905Z,3.80
2019-02-25T02:22:04.550Z,3.70
2019-02-25T02:24:32.385Z,3.60
2019-02-25T02:27:00.229Z,3.60
2019-02-25T02:29:28.152Z,3.60
2019-02-25T02:31:56.006Z,3.60
2019-02-25T02:34:23.919Z,3.60
2019-02-25T02:36:51.684Z,3.40
2019-02-25T02:39:19.547Z,3.40
2019-02-25T02:42:31.559Z,3.40
2019-02-25T02:45:10.374Z,3.40
2019-02-25T02:48:03.930Z,3.30
2019-02-25T02:50:33.321Z,3.20
2019-02-25T02:53:01.002Z,3.10
2019-02-25T02:55:28.743Z,3.10
2019-02-25T02:57:56.401Z,2.90
2019-02-25T03:00:24.093Z,2.80
2019-02-25T03:02:51.933Z,2.70
2019-02-25T03:05:19.691Z,2.90
2019-02-25T03:07:47.445Z,3.10
2019-02-25T03:10:16.950Z,3.00
2019-02-25T03:12:45.089Z,3.00
2019-02-25T03:15:14.794Z,3.10
2019-02-25T03:17:44.161Z,3.20
2019-02-25T03:20:11.978Z,3.20
2019-02-25T03:22:40.213Z,3.30
2019-02-25T03:25:09.961Z,3.30
2019-02-25T03:27:39.312Z,3.30
2019-02-25T03:30:15.219Z,3.30
2019-02-25T03:32:44.756Z,3.20
2019-02-25T03:35:12.618Z,3.20
2019-02-25T03:37:40.864Z,3.10
2019-02-25T03:40:10.810Z,3.00
2019-02-25T03:42:40.217Z,2.80
2019-02-25T03:45:09.068Z,2.80
2019-02-25T03:47:38.430Z,2.80
2019-02-25T03:50:06.412Z,3.00
2019-02-25T03:52:34.546Z,3.00
2019-02-25T03:55:02.446Z,3.10
2019-02-25T03:57:31.785Z,3.10
2019-02-25T03:59:59.676Z,3.00
2019-02-25T04:02:27.534Z,3.00
2019-02-25T04:04:55.487Z,2.90
2019-02-25T04:07:23.261Z,2.90
2019-02-25T04:09:51.214Z,2.80
2019-02-25T04:12:18.865Z,2.90
2019-02-25T04:14:46.633Z,2.90
2019-02-25T04:17:14.318Z,2.80
2019-02-25T04:19:42.147Z,2.80
2019-02-25T04:22:09.912Z,2.80
2019-02-25T04:24:37.685Z,2.90
2019-02-25T04:27:05.455Z,2.80
2019-02-25T04:29:33.208Z,2.80
2019-02-25T04:32:00.988Z,2.70
2019-02-25T04:34:28.726Z,2.70
2019-02-25T04:36:56.405Z,2.70
2019-02-25T04:39:24.261Z,2.70
2019-02-25T04:41:51.954Z,2.60
2019-02-25T04:44:19.718Z,2.70
2019-02-25T04:46:47.583Z,2.60
2019-02-25T04:49:15.342Z,2.60
2019-02-25T04:51:43.035Z,2.60
2019-02-25T04:54:10.870Z,2.60
2019-02-25T04:56:38.729Z,2.50
2019-02-25T04:59:06.382Z,2.50
2019-02-25T05:01:34.209Z,2.60
2019-02-25T05:04:02.002Z,2.60
2019-02-25T05:06:29.839Z,2.60
2019-02-25T05:08:57.633Z,2.60
2019-02-25T05:11:29.648Z,2.40
2019-02-25T05:13:58.271Z,2.40
2019-02-25T05:16:26.131Z,2.30
2019-02-25T05:18:53.805Z,2.40
2019-02-25T05:21:21.537Z,2.30
2019-02-25T05:23:49.335Z,2.30
2019-02-25T05:26:17.240Z,2.30
2019-02-25T05:28:44.910Z,2.30
2019-02-25T05:31:12.679Z,2.30
2019-02-25T05:33:40.366Z,2.30
2019-02-25T05:36:08.212Z,2.30
2019-02-25T05:38:35.985Z,2.20
2019-02-25T05:41:03.917Z,2.20
2019-02-25T05:43:31.676Z,2.30
2019-02-25T05:45:59.428Z,2.30
2019-02-25T05:48:27.218Z,2.30
2019-02-25T05:50:54.986Z,2.30
2019-02-25T05:53:22.698Z,2.30
2019-02-25T05:55:50.587Z,2.30
2019-02-25T05:58:18.442Z,2.20
2019-02-25T06:00:46.299Z,2.10
2019-02-25T06:03:14.015Z,2.10
2019-02-25T06:05:41.677Z,2.10
2019-02-25T06:08:09.550Z,2.10
2019-02-25T06:10:37.315Z,2.10
2019-02-25T06:13:05.146Z,2.00
2019-02-25T06:15:33.705Z,2.00
2019-02-25T06:18:01.630Z,1.90
2019-02-25T06:20:29.406Z,2.00
2019-02-25T06:22:57.259Z,2.00
2019-02-25T06:25:25.002Z,2.00
2019-02-25T06:27:52.824Z,2.00
2019-02-25T06:30:20.827Z,2.00
2019-02-25T06:32:49.169Z,1.90
2019-02-25T06:35:16.958Z,2.00
2019-02-25T06:37:44.743Z,2.00
2019-02-25T06:40:15.399Z,2.10
2019-02-25T06:42:44.682Z,2.10
2019-02-25T06:45:14.202Z,2.10
2019-02-25T06:48:05.598Z,2.00
2019-02-25T06:50:33.214Z,1.90
2019-02-25T06:53:00.991Z,1.90
2019-02-25T06:55:28.694Z,1.90
2019-02-25T06:57:56.458Z,2.00
2019-02-25T07:00:24.194Z,2.10
2019-02-25T07:02:51.991Z,2.20
2019-02-25T07:05:36.540Z,2.20
2019-02-25T07:08:09.662Z,2.10
2019-02-25T07:10:46.326Z,2.20
2019-02-25T07:13:22.357Z,2.30
2019-02-25T07:16:14.275Z,2.40
2019-02-25T07:19:03.100Z,2.50
2019-02-25T07:21:47.525Z,2.50
2019-02-25T07:24:39.441Z,2.60
2019-02-25T07:27:19.959Z,2.60
2019-02-25T07:30:00.143Z,2.60
2019-02-25T07:33:01.515Z,2.70
2019-02-25T07:35:45.898Z,2.70
2019-02-25T07:38:39.529Z,2.80
2019-02-25T07:41:25.845Z,2.90
2019-02-25T07:44:26.851Z,3.00
2019-02-25T07:47:15.701Z,3.10
2019-02-25T07:50:00.331Z,3.10
2019-02-25T07:52:42.973Z,3.20
2019-02-25T07:55:33.097Z,3.30
2019-02-25T07:58:34.001Z,3.40
2019-02-25T08:01:08.490Z,3.50
2019-02-25T08:04:06.091Z,3.60
2019-02-25T08:06:47.248Z,3.60
2019-02-25T08:09:23.007Z,3.70
2019-02-25T08:11:58.344Z,3.80
2019-02-25T08:14:43.849Z,3.80
2019-02-25T08:17:32.699Z,3.80
2019-02-25T08:20:33.818Z,3.80
2019-02-25T08:23:21.700Z,3.90
2019-02-25T08:26:08.870Z,4.10
2019-02-25T08:29:00.941Z,4.20
2019-02-25T08:31:40.903Z,4.30
2019-02-25T08:34:22.177Z,4.40
2019-02-25T08:37:52.343Z,4.50
2019-02-25T08:41:01.119Z,4.60
2019-02-25T08:43:40.605Z,4.70
2019-02-25T08:46:35.475Z,4.80
2019-02-25T08:49:11.433Z,4.80
2019-02-25T08:51:40.758Z,4.80
2019-02-25T08:54:08.638Z,5.00
2019-02-25T08:56:36.437Z,5.20
2019-02-25T08:59:04.217Z,5.40
2019-02-25T09:01:32.118Z,5.70
2019-02-25T09:03:59.899Z,6.00
2019-02-25T09:06:28.231Z,6.30
2019-02-25T09:08:56.482Z,6.70
2019-02-25T09:11:24.319Z,7.10
2019-02-25T09:13:52.058Z,7.60
2019-02-25T09:16:20.036Z,8.30
2019-02-25T09:18:47.937Z,9.10
2019-02-25T09:21:15.759Z,9.80
2019-02-25T09:23:43.588Z,10.50
2019-02-25T09:26:11.991Z,11.10
2019-02-25T09:28:39.894Z,11.70
2019-02-25T09:31:07.914Z,12.10
2019-02-25T09:33:35.652Z,12.50
2019-02-25T09:36:03.686Z,12.80
2019-02-25T09:38:31.445Z,13.00
2019-02-25T09:40:59.242Z,13.20
2019-02-25T09:43:27.144Z,13.30
2019-02-25T09:45:54.919Z,13.30
2019-02-25T09:48:24.059Z,13.30
2019-02-25T09:50:51.981Z,13.40
2019-02-25T09:53:19.778Z,13.30
2019-02-25T09:55:47.487Z,12.90
2019-02-25T09:58:16.789Z,12.60
2019-02-25T10:00:46.095Z,12.40
2019-02-25T10:03:14.149Z,12.10
2019-02-25T10:05:41.914Z,11.80
2019-02-25T10:08:09.731Z,11.50
2019-02-25T10:10:37.678Z,11.20
2019-02-25T10:13:05.504Z,10.90
2019-02-25T10:15:33.311Z,10.70
2019-02-25T10:18:01.347Z,10.50
2019-02-25T10:20:29.087Z,10.40
2019-02-25T10:22:56.952Z,10.30
2019-02-25T10:25:24.701Z,10.10
2019-02-25T10:27:52.698Z,10.10
2019-02-25T10:30:20.647Z,10.20
2019-02-25T10:32:48.458Z,10.20
2019-02-25T10:35:16.266Z,10.40
2019-02-25T10:37:45.725Z,10.40
2019-02-25T10:40:15.461Z,10.50
2019-02-25T10:42:43.746Z,10.50
2019-02-25T10:45:13.627Z,10.70
2019-02-25T10:47:44.323Z,10.90
2019-02-25T10:50:12.914Z,11.00
2019-02-25T10:52:42.848Z,11.20
2019-02-25T10:55:17.199Z,11.30
2019-02-25T10:57:49.110Z,11.60
2019-02-25T11:00:17.239Z,11.80
2019-02-25T11:02:47.309Z,12.10
2019-02-25T11:05:16.372Z,12.10
2019-02-25T11:07:44.190Z,12.30
2019-02-25T11:10:34.947Z,12.50
2019-02-25T11:13:04.490Z,12.60
2019-02-25T11:15:33.763Z,12.80
2019-02-25T11:18:03.902Z,13.00
2019-02-25T11:20:33.401Z,13.20
2019-02-25T11:23:01.903Z,13.20
2019-02-25T11:25:30.178Z,13.40
2019-02-25T11:27:58.414Z,13.60
2019-02-25T11:30:26.315Z,13.70
2019-02-25T11:32:56.170Z,13.90
2019-02-25T11:35:23.995Z,13.90
2019-02-25T11:37:52.471Z,14.00
2019-02-25T11:40:21.467Z,14.20
2019-02-25T11:42:49.297Z,14.30
2019-02-25T11:45:17.255Z,14.50
2019-02-25T11:47:46.086Z,14.60
2019-02-25T11:50:14.013Z,14.70
2019-02-25T11:52:43.225Z,14.70
2019-02-25T11:55:11.211Z,14.90
2019-02-25T11:57:40.303Z,15.00
2019-02-25T12:00:18.904Z,15.00
2019-02-25T12:02:48.393Z,15.20
2019-02-25T12:05:16.743Z,14.90
2019-02-25T12:07:45.487Z,15.00
2019-02-25T12:10:13.563Z,15.20
2019-02-25T12:12:42.530Z,15.30
2019-02-25T12:15:12.258Z,15.40
2019-02-25T12:17:41.713Z,15.50
2019-02-25T12:20:10.542Z,15.70
2019-02-25T12:22:39.587Z,15.60
2019-02-25T12:25:08.442Z,15.80
2019-02-25T12:27:37.954Z,15.90
2019-02-25T12:30:09.895Z,16.10
2019-02-25T12:32:39.353Z,16.20
2019-02-25T12:35:07.449Z,16.10
2019-02-25T12:37:36.494Z,16.10
2019-02-25T12:40:04.539Z,16.10
2019-02-25T12:42:34.027Z,16.30
2019-02-25T12:45:01.858Z,16.20
2019-02-25T12:47:31.323Z,16.30
2019-02-25T12:49:59.348Z,16.30
2019-02-25T12:52:27.478Z,16.50
2019-02-25T12:54:55.355Z,16.60
2019-02-25T12:57:23.277Z,16.60
2019-02-25T12:59:51.019Z,16.70
2019-02-25T13:02:19.144Z,16.50
2019-02-25T13:04:47.131Z,16.50
2019-02-25T13:09:42.696Z,17.00
2019-02-25T13:12:10.459Z,17.10
2019-02-25T13:14:38.540Z,17.00
2019-02-25T13:17:06.380Z,17.20
2019-02-25T13:19:34.262Z,17.20
2019-02-25T13:22:02.116Z,17.20
2019-02-25T13:24:30.899Z,17.40
2019-02-25T13:27:01.030Z,17.60
2019-02-25T13:29:29.467Z,17.80
2019-02-25T13:31:57.333Z,18.00
2019-02-25T13:34:25.241Z,18.10
2019-02-25T13:36:55.924Z,18.10
2019-02-25T13:39:24.220Z,18.10
2019-02-25T13:41:52.210Z,18.10
2019-02-25T13:44:20.140Z,18.10
2019-02-25T13:46:48.030Z,18.10
2019-02-25T13:49:16.071Z,18.00
2019-02-25T13:51:44.138Z,17.80
2019-02-25T13:54:12.207Z,17.70
2019-02-25T13:56:40.364Z,17.80
2019-02-25T13:59:08.746Z,18.00
2019-02-25T14:01:36.699Z,18.00
2019-02-25T14:04:04.640Z,18.30
2019-02-25T14:06:32.540Z,18.30
2019-02-25T14:09:00.556Z,18.40
2019-02-25T14:11:28.722Z,18.20
2019-02-25T14:13:56.545Z,18.20
2019-02-25T14:16:25.225Z,18.40
2019-02-25T14:18:53.188Z,18.60
2019-02-25T14:21:22.022Z,18.80
2019-02-25T14:23:50.167Z,19.10
2019-02-25T14:26:18.952Z,19.20
2019-02-25T14:28:48.703Z,19.30
2019-02-25T14:31:16.915Z,19.40
2019-02-25T14:33:44.744Z,19.10
2019-02-25T14:36:13.043Z,19.20
2019-02-25T14:38:40.926Z,19.20
2019-02-25T14:41:09.042Z,19.40
2019-02-25T14:43:46.066Z,19.60
2019-02-25T14:46:11.824Z,19.70
2019-02-25T14:48:38.436Z,19.80
2019-02-25T14:51:06.278Z,19.70
2019-02-25T14:53:36.958Z,19.70
2019-02-25T14:56:07.024Z,19.60
2019-02-25T14:58:38.149Z,19.80
2019-02-25T15:01:08.611Z,19.90
2019-02-25T15:03:36.557Z,20.00
2019-02-25T15:06:06.394Z,20.00
2019-02-25T15:08:34.400Z,20.00
2019-02-25T15:11:04.432Z,19.90
2019-02-25T15:13:33.248Z,19.90
2019-02-25T15:16:02.192Z,19.90
2019-02-25T15:18:31.257Z,19.80
2019-02-25T15:21:02.097Z,19.80
2019-02-25T15:23:29.683Z,19.80
2019-02-25T15:26:05.018Z,19.70
2019-02-25T15:28:27.551Z,19.60
2019-02-25T15:30:55.486Z,19.60
2019-02-25T15:33:23.775Z,19.60
2019-02-25T15:35:51.602Z,19.60
2019-02-25T15:38:19.631Z,19.60
2019-02-25T15:40:47.719Z,19.50
2019-02-25T15:43:18.270Z,19.40
2019-02-25T15:45:45.928Z,19.40
2019-02-25T15:48:15.883Z,19.30
2019-02-25T15:50:48.024Z,19.30
2019-02-25T15:53:17.458Z,19.20
2019-02-25T15:55:45.520Z,19.00
2019-02-25T15:58:14.340Z,19.00
2019-02-25T16:00:42.674Z,18.80
2019-02-25T16:03:15.928Z,18.70
2019-02-25T16:05:45.555Z,18.80
2019-02-25T16:08:17.101Z,18.80
2019-02-25T16:10:47.010Z,18.70
2019-02-25T16:13:15.886Z,18.60
2019-02-25T16:15:43.869Z,18.60
2019-02-25T16:18:13.604Z,18.60
2019-02-25T16:20:45.731Z,18.60
2019-02-25T16:23:16.028Z,18.60
2019-02-25T16:25:45.645Z,18.60
2019-02-25T16:28:17.453Z,18.60
2019-02-25T16:30:46.900Z,18.60
2019-02-25T16:33:16.549Z,18.50
2019-02-25T16:35:46.131Z,18.30
2019-02-25T16:38:16.570Z,18.20
2019-02-25T16:40:44.856Z,18.10
2019-02-25T16:43:21.010Z,18.00
2019-02-25T16:45:51.974Z,18.00
2019-02-25T16:48:26.449Z,18.00
2019-02-25T16:50:56.217Z,17.90
2019-02-25T16:53:26.434Z,17.90
2019-02-25T16:56:00.560Z,17.70
2019-02-25T16:58:30.340Z,17.60
2019-02-25T17:01:05.358Z,17.50
2019-02-25T17:03:37.588Z,17.40
2019-02-25T17:06:06.777Z,17.20
2019-02-25T17:08:36.059Z,17.10
2019-02-25T17:11:04.637Z,16.90
2019-02-25T17:13:34.746Z,16.80
2019-02-25T17:16:03.380Z,16.70
2019-02-25T17:18:33.119Z,16.50
2019-02-25T17:21:05.160Z,16.50
2019-02-25T17:23:38.874Z,16.40
2019-02-25T17:26:10.545Z,16.30
2019-02-25T17:28:41.688Z,16.20
2019-02-25T17:31:11.531Z,16.00
2019-02-25T18:21:47.687Z,13.80
2019-02-25T18:24:15.780Z,13.70
2019-02-25T18:26:44.453Z,13.70
2019-02-25T18:29:16.012Z,13.70
2019-02-25T18:31:43.460Z,13.80
2019-02-25T18:34:12.914Z,13.80
2019-02-25T18:36:41.553Z,13.80
2019-02-25T18:39:12.166Z,13.70
2019-02-25T18:41:40.439Z,13.70
2019-02-25T18:44:09.200Z,13.60
2019-02-25T18:46:38.220Z,13.60
2019-02-25T18:49:07.473Z,13.70
2019-02-25T18:51:37.451Z,13.70
2019-02-25T18:54:06.055Z,13.60
2019-02-25T18:56:35.467Z,13.50
2019-02-25T18:59:11.250Z,13.50
2019-02-25T19:01:34.163Z,13.50
2019-02-25T19:04:02.103Z,13.40
2019-02-25T19:06:30.135Z,13.40
2019-02-25T19:08:58.347Z,13.40
2019-02-25T19:11:27.793Z,13.30
2019-02-25T19:13:57.555Z,13.20
2019-02-25T19:16:26.294Z,13.10
2019-02-25T19:18:54.312Z,13.10
2019-02-25T19:21:23.318Z,13.00
2019-02-25T19:23:52.198Z,13.00
2019-02-25T19:26:21.911Z,12.90
2019-02-25T19:28:52.322Z,12.80
2019-02-25T19:31:20.044Z,12.70
2019-02-25T19:33:48.454Z,12.70
2019-02-25T19:36:16.935Z,12.60
2019-02-25T19:38:48.166Z,12.60
2019-02-25T19:41:17.835Z,12.60
2019-02-25T19:43:46.030Z,12.60
2019-02-25T19:46:14.323Z,12.60
2019-02-25T19:48:44.747Z,12.50
2019-02-25T19:51:12.723Z,12.50
2019-02-25T19:53:42.849Z,12.40
2019-02-25T19:56:10.579Z,12.40
2019-02-25T19:58:40.741Z,12.50
2019-02-25T20:01:08.998Z,12.30
2019-02-25T20:03:39.910Z,12.20
2019-02-25T20:06:11.146Z,12.00
2019-02-25T20:08:37.598Z,11.90
2019-02-25T20:11:05.472Z,11.80
2019-02-25T20:13:33.460Z,12.00
2019-02-25T20:16:07.924Z,12.10
2019-02-25T20:18:33.276Z,12.10
2019-02-25T20:21:03.942Z,11.80
2019-02-25T20:23:30.966Z,11.70
2019-02-25T20:25:58.859Z,11.60
2019-02-25T20:28:26.910Z,11.50
2019-02-25T20:30:54.822Z,11.30
2019-02-25T20:33:25.696Z,11.30
2019-02-25T20:35:53.532Z,11.10
2019-02-25T20:38:24.566Z,10.80
2019-02-25T20:40:53.098Z,10.70
2019-02-25T20:43:25.757Z,10.80
2019-02-25T20:45:54.646Z,10.80
2019-02-25T20:48:23.546Z,10.80
2019-02-25T20:50:51.508Z,10.60
2019-02-25T20:53:19.455Z,10.40
2019-02-25T20:55:48.611Z,10.10
2019-02-25T20:58:18.811Z,10.10
2019-02-25T21:00:49.182Z,10.00
2019-02-25T21:03:18.970Z,9.80
2019-02-25T21:05:46.955Z,9.50
2019-02-25T21:08:16.843Z,9.40
2019-02-25T21:10:45.307Z,9.40
2019-02-25T21:13:13.227Z,9.60
2019-02-25T21:15:42.833Z,9.70
2019-02-25T21:18:13.387Z,9.90
2019-02-25T21:20:43.017Z,9.90
2019-02-25T21:23:12.570Z,9.90
2019-02-25T21:25:44.207Z,9.90
2019-02-25T21:28:12.408Z,10.00
2019-02-25T21:30:43.227Z,9.90
2019-02-25T21:33:13.341Z,9.80
2019-02-25T21:35:40.200Z,9.90
2019-02-25T21:38:09.378Z,9.90
2019-02-25T21:40:37.347Z,9.90
2019-02-25T21:43:05.486Z,9.90
2019-02-25T21:45:35.328Z,9.70
2019-02-25T21:48:04.943Z,9.50
2019-02-25T21:50:34.010Z,9.40
2019-02-25T21:53:04.856Z,9.30
2019-02-25T21:55:34.461Z,9.30
2019-02-25T21:58:04.721Z,9.30
2019-02-25T22:00:35.137Z,9.20
2019-02-25T22:03:04.440Z,9.20
2019-02-25T22:05:31.971Z,9.20
2019-02-25T22:08:01.832Z,9.10
2019-02-25T22:10:38.805Z,8.90
2019-02-25T22:13:08.661Z,8.80
2019-02-25T22:15:36.075Z,8.50
2019-02-25T22:18:06.094Z,8.30
2019-02-25T22:20:37.655Z,8.40
2019-02-25T22:23:05.670Z,8.60
2019-02-25T22:25:33.436Z,8.60
2019-02-25T22:28:03.215Z,8.30
2019-02-25T22:30:31.381Z,8.30
2019-02-25T22:33:00.696Z,8.40
2019-02-25T22:35:33.105Z,8.50
2019-02-25T22:38:00.414Z,8.40
2019-02-25T22:40:29.947Z,8.50
2019-02-25T22:42:58.894Z,8.60
2019-02-25T22:45:26.883Z,8.50
2019-02-25T22:47:54.752Z,8.40
2019-02-25T22:50:22.492Z,8.50
2019-02-25T22:52:55.629Z,8.40
2019-02-25T22:55:22.215Z,8.40
2019-02-25T22:57:53.532Z,8.30
2019-02-25T23:00:41.610Z,8.20
2019-02-25T23:03:11.379Z,8.00
2019-02-25T23:05:42.990Z,7.80
2019-02-25T23:08:12.802Z,7.70
2019-02-25T23:10:41.958Z,7.70
2019-02-25T23:13:09.601Z,7.80
2019-02-25T23:15:37.411Z,7.90
2019-02-25T23:18:09.653Z,7.80
2019-02-25T23:20:35.043Z,7.60
2019-02-25T23:23:06.510Z,7.50
2019-02-25T23:25:33.914Z,7.60
2019-02-25T23:28:02.948Z,7.60
2019-02-25T23:30:30.774Z,7.70
2019-02-25T23:32:58.502Z,7.70
2019-02-25T23:35:26.430Z,7.50
2019-02-25T23:37:56.266Z,7.50
2019-02-25T23:40:24.258Z,7.60
2019-02-25T23:42:51.994Z,7.60
2019-02-25T23:45:21.228Z,7.60
2019-02-25T23:47:49.723Z,7.70
2019-02-25T23:50:17.577Z,7.70
2019-02-25T23:52:45.562Z,7.70
2019-02-25T23:55:16.553Z,7.70
2019-02-25T23:57:43.147Z,7.70
